Wheatley, United Kingdom
Current Conditions -  °F | °C
As of 10:20 PM on Wednesday 26 Nov 2014 (Local Time) from EGTK Reporting Station
Moderate Fog Moderate Fog  
Wind Chill: 45°   Ceiling: Unl
Heat Index: 45°   Visibility: 0.21mi
Dew Point: 45°   Wind: 2mph
Humidity: 100%   Direction: 340°NNW
Pressure: 29.74"   Gusts: NA
Location:  51.75°N, 1.14°W
Report Text: EGTK 262220Z 34002KT 0350 R19/1200 FG VV/// 07/07 Q1007
Loading
Personal Weather Stations






























Interactive Weather Map New forecast layout! Learn more

10-Day Weather Forecast

Advertisements
Track Severe Weather on mobile